createdAt,value
2023-04-09T00:02:02.281Z,101944.09
2023-04-09T00:04:49.507Z,101947.92
2023-04-09T00:07:35.906Z,101946.98
2023-04-09T00:10:22.694Z,101940.23
2023-04-09T00:13:09.160Z,101937.32
2023-04-09T00:15:56.197Z,101942.40
2023-04-09T00:18:42.616Z,101947.46
2023-04-09T00:21:28.968Z,101948.25
2023-04-09T00:24:15.434Z,101944.70
2023-04-09T00:27:01.983Z,101942.00
2023-04-09T00:29:48.536Z,101941.59
2023-04-09T00:32:35.024Z,101938.20
2023-04-09T00:35:22.594Z,101937.09
2023-04-09T00:38:09.472Z,101931.85
2023-04-09T00:40:56.189Z,101927.86
2023-04-09T00:43:42.542Z,101932.34
2023-04-09T00:46:29.336Z,101941.77
2023-04-09T00:49:16.452Z,101947.06
2023-04-09T00:52:02.835Z,101946.94
2023-04-09T00:54:50.948Z,101952.00
2023-04-09T00:57:37.615Z,101947.58
2023-04-09T01:00:24.659Z,101950.98
2023-04-09T01:03:11.278Z,101952.96
2023-04-09T01:06:12.149Z,101952.50
2023-04-09T01:09:05.400Z,101956.67
2023-04-09T01:12:18.282Z,101957.33
2023-04-09T01:15:09.810Z,101961.09
2023-04-09T01:18:15.993Z,101958.52
2023-04-09T01:21:06.190Z,101961.32
2023-04-09T01:24:01.943Z,101961.79
2023-04-09T01:27:05.618Z,101958.17
2023-04-09T01:30:04.243Z,101961.69
2023-04-09T01:32:52.465Z,101959.06
2023-04-09T01:35:42.951Z,101966.83
2023-04-09T01:38:29.442Z,101971.38
2023-04-09T01:41:19.471Z,101966.64
2023-04-09T01:44:07.685Z,101967.34
2023-04-09T01:46:55.658Z,101965.80
2023-04-09T01:49:43.630Z,101972.15
2023-04-09T01:52:30.736Z,101971.27
2023-04-09T01:55:17.043Z,101961.25
2023-04-09T01:58:04.103Z,101966.48
2023-04-09T02:00:55.921Z,101967.01
2023-04-09T02:03:56.821Z,101964.42
2023-04-09T02:07:11.046Z,101968.71
2023-04-09T02:10:00.970Z,101967.95
2023-04-09T02:12:53.398Z,101965.44
2023-04-09T02:15:41.528Z,101963.31
2023-04-09T02:18:30.409Z,101959.91
2023-04-09T02:21:18.632Z,101960.09
2023-04-09T02:24:05.413Z,101961.16
2023-04-09T02:26:52.345Z,101967.51
2023-04-09T02:29:40.400Z,101962.23
2023-04-09T02:32:27.045Z,101963.55
2023-04-09T02:35:14.624Z,101964.23
2023-04-09T02:38:01.126Z,101960.23
2023-04-09T02:40:47.528Z,101962.09
2023-04-09T02:43:34.552Z,101962.09
2023-04-09T02:46:21.038Z,101964.83
2023-04-09T02:49:08.169Z,101965.29
2023-04-09T02:51:54.957Z,101960.57
2023-04-09T02:54:41.351Z,101956.27
2023-04-09T02:57:27.807Z,101954.47
2023-04-09T03:00:15.376Z,101956.92
2023-04-09T03:03:02.096Z,101957.68
2023-04-09T03:05:48.543Z,101953.33
2023-04-09T03:08:35.586Z,101951.86
2023-04-09T03:11:22.216Z,101953.25
2023-04-09T03:14:08.477Z,101951.83
2023-04-09T03:16:54.998Z,101957.64
2023-04-09T03:19:41.259Z,101949.48
2023-04-09T03:22:27.810Z,101949.34
2023-04-09T03:25:15.337Z,101942.39
2023-04-09T03:28:01.510Z,101943.89
2023-04-09T03:30:57.972Z,101941.12
2023-04-09T03:33:44.611Z,101940.84
2023-04-09T03:36:31.620Z,101937.84
2023-04-09T03:39:33.082Z,101938.27
2023-04-09T03:42:19.864Z,101935.05
2023-04-09T03:45:08.776Z,101935.60
2023-04-09T03:47:59.996Z,101938.24
2023-04-09T03:50:46.713Z,101937.13
2023-04-09T03:53:35.458Z,101934.13
2023-04-09T03:56:24.562Z,101937.90
2023-04-09T03:59:11.299Z,101939.49
2023-04-09T04:02:00.029Z,101935.64
2023-04-09T04:04:47.584Z,101931.06
2023-04-09T04:07:34.509Z,101929.37
2023-04-09T04:10:27.288Z,101929.42
2023-04-09T04:13:13.838Z,101927.30
2023-04-09T04:16:09.708Z,101930.16
2023-04-09T04:18:56.778Z,101936.63
2023-04-09T04:21:43.024Z,101939.43
2023-04-09T04:24:29.439Z,101941.47
2023-04-09T04:27:16.223Z,101942.86
2023-04-09T04:30:03.295Z,101943.60
2023-04-09T04:33:10.000Z,101946.04
2023-04-09T04:36:07.873Z,101943.70
2023-04-09T04:39:03.017Z,101942.01
2023-04-09T04:42:01.700Z,101944.45
2023-04-09T04:44:48.037Z,101941.48
2023-04-09T04:47:53.715Z,101940.77
2023-04-09T04:50:40.114Z,101942.63
2023-04-09T04:53:28.266Z,101949.11
2023-04-09T04:56:15.701Z,101945.95
2023-04-09T04:59:16.321Z,101953.46
2023-04-09T05:02:12.418Z,101953.72
2023-04-09T05:05:25.469Z,101952.41
2023-04-09T05:08:14.085Z,101948.45
2023-04-09T05:11:01.206Z,101945.84
2023-04-09T05:13:53.292Z,101951.76
2023-04-09T05:16:40.607Z,101952.90
2023-04-09T05:19:27.487Z,101946.27
2023-04-09T05:22:20.954Z,101951.55
2023-04-09T05:25:08.631Z,101955.23
2023-04-09T05:27:57.355Z,101953.56
2023-04-09T05:30:47.906Z,101954.91
2023-04-09T05:33:38.278Z,101953.72
2023-04-09T05:36:28.347Z,101954.98
2023-04-09T05:39:15.054Z,101950.48
2023-04-09T05:42:02.277Z,101953.54
2023-04-09T05:44:53.604Z,101952.59
2023-04-09T05:47:40.525Z,101947.69
2023-04-09T05:50:34.389Z,101951.70
2023-04-09T05:53:27.736Z,101951.36
2023-04-09T05:56:15.867Z,101958.82
2023-04-09T05:59:09.055Z,101953.73
2023-04-09T06:01:56.376Z,101955.73
2023-04-09T06:04:43.176Z,101961.33
2023-04-09T06:07:30.217Z,101952.94
2023-04-09T06:10:17.081Z,101959.23
2023-04-09T06:13:04.002Z,101964.48
2023-04-09T06:15:51.216Z,101965.31
2023-04-09T06:18:38.039Z,101966.71
2023-04-09T06:21:24.710Z,101969.06
2023-04-09T06:24:11.332Z,101970.77
2023-04-09T06:26:57.870Z,101965.44
2023-04-09T06:29:44.406Z,101965.30
2023-04-09T06:32:33.647Z,101973.35
2023-04-09T06:35:24.385Z,101969.27
2023-04-09T06:38:11.133Z,101972.32
2023-04-09T06:40:57.794Z,101973.69
2023-04-09T06:43:44.476Z,101971.13
2023-04-09T06:46:31.333Z,101986.34
2023-04-09T06:49:17.867Z,101991.28
2023-04-09T06:52:05.689Z,101996.42
2023-04-09T06:54:51.963Z,101997.91
2023-04-09T06:57:39.258Z,102000.77
2023-04-09T07:00:26.412Z,102003.30
2023-04-09T07:03:13.208Z,102008.33
2023-04-09T07:05:59.614Z,102006.46
2023-04-09T07:08:46.291Z,102007.38
2023-04-09T07:11:32.892Z,102009.38
2023-04-09T07:14:19.535Z,102009.95
2023-04-09T07:17:06.141Z,102008.16
2023-04-09T07:19:54.120Z,102008.02
2023-04-09T07:22:41.671Z,102012.20
2023-04-09T07:25:28.410Z,102009.56
2023-04-09T07:28:15.099Z,102009.30
2023-04-09T07:31:03.100Z,102010.08
2023-04-09T07:33:49.563Z,102007.91
2023-04-09T07:36:35.973Z,101996.98
2023-04-09T07:39:22.518Z,102005.59
2023-04-09T07:42:09.544Z,102008.41
2023-04-09T07:44:56.752Z,102008.54
2023-04-09T07:47:43.380Z,102002.61
2023-04-09T07:50:29.987Z,102007.05
2023-04-09T07:53:16.673Z,102008.46
2023-04-09T07:56:03.258Z,102006.34
2023-04-09T07:58:50.967Z,101999.73
2023-04-09T08:01:37.771Z,102005.36
2023-04-09T08:04:24.762Z,102003.71
2023-04-09T08:07:11.864Z,102007.05
2023-04-09T08:09:57.997Z,102011.09
2023-04-09T08:12:44.948Z,102010.88
2023-04-09T08:15:32.631Z,102009.02
2023-04-09T08:18:19.008Z,102015.48
2023-04-09T08:21:06.261Z,102013.35
2023-04-09T08:23:53.093Z,102013.02
2023-04-09T08:26:41.065Z,102015.94
2023-04-09T08:29:27.470Z,102013.49
2023-04-09T08:32:14.381Z,102013.23
2023-04-09T08:35:00.994Z,102019.42
2023-04-09T08:37:47.732Z,102020.83
2023-04-09T08:40:36.129Z,102022.83
2023-04-09T08:43:25.013Z,102021.20
2023-04-09T08:46:15.734Z,102019.50
2023-04-09T08:49:02.374Z,102018.82
2023-04-09T08:51:49.180Z,102015.83
2023-04-09T08:54:35.897Z,102008.27
2023-04-09T08:57:22.163Z,102013.27
2023-04-09T09:00:09.724Z,102014.05
2023-04-09T09:03:08.504Z,102013.32
2023-04-09T09:05:55.412Z,102001.38
2023-04-09T09:08:42.082Z,102011.86
2023-04-09T09:11:29.161Z,102010.21
2023-04-09T09:14:20.171Z,102012.53
2023-04-09T09:17:08.693Z,102012.80
2023-04-09T09:19:55.501Z,102012.37
2023-04-09T09:22:55.917Z,102017.39
2023-04-09T09:25:43.369Z,102018.89
2023-04-09T09:28:35.612Z,102014.79
2023-04-09T09:31:23.161Z,102022.53
2023-04-09T09:34:10.186Z,102025.66
2023-04-09T09:36:56.718Z,102021.86
2023-04-09T09:39:44.809Z,102023.02
2023-04-09T09:42:31.946Z,102019.11
2023-04-09T09:45:19.642Z,102017.91
2023-04-09T09:48:06.440Z,102017.98
2023-04-09T09:50:53.441Z,102013.49
2023-04-09T09:53:43.454Z,102015.92
2023-04-09T09:56:39.568Z,102011.99
2023-04-09T09:59:32.200Z,102011.45
2023-04-09T10:02:22.840Z,102004.92
2023-04-09T10:05:10.524Z,102000.13
2023-04-09T10:07:58.473Z,101998.23
2023-04-09T10:10:45.637Z,101999.60
2023-04-09T10:13:41.598Z,102004.52
2023-04-09T10:16:28.519Z,102006.98
2023-04-09T10:19:15.648Z,102003.36
2023-04-09T10:22:08.051Z,102005.20
2023-04-09T10:24:55.809Z,102003.73
2023-04-09T10:27:46.200Z,101998.86
2023-04-09T10:30:34.451Z,101998.75
2023-04-09T10:33:29.205Z,101998.52
2023-04-09T10:36:19.296Z,101996.99
2023-04-09T10:39:13.702Z,101995.64
2023-04-09T10:42:07.078Z,101994.30
2023-04-09T10:45:14.711Z,101992.88
2023-04-09T10:48:03.174Z,101991.46
2023-04-09T10:50:54.270Z,101986.05
2023-04-09T10:53:40.920Z,101986.95
2023-04-09T10:56:27.429Z,101986.27
2023-04-09T10:59:14.056Z,101985.19
2023-04-09T11:02:00.381Z,101984.46
2023-04-09T11:05:07.373Z,101989.25
2023-04-09T11:07:59.318Z,101983.75
2023-04-09T11:10:49.054Z,101985.58
2023-04-09T11:13:36.900Z,101981.98
2023-04-09T11:16:26.050Z,101983.67
2023-04-09T11:19:13.705Z,101983.40
2023-04-09T11:22:00.216Z,101980.00
2023-04-09T11:24:46.792Z,101980.52
2023-04-09T11:27:45.806Z,101982.47
2023-04-09T11:30:34.535Z,101982.44
2023-04-09T11:33:20.996Z,101983.17
2023-04-09T11:36:07.787Z,101973.89
2023-04-09T11:38:55.469Z,101982.01
2023-04-09T11:41:42.257Z,101973.71
2023-04-09T11:44:28.664Z,101973.25
2023-04-09T11:47:17.430Z,101968.98
2023-04-09T11:50:06.870Z,101973.50
2023-04-09T11:52:53.267Z,101971.21
2023-04-09T11:55:39.522Z,101968.90
2023-04-09T11:58:28.024Z,101966.68
2023-04-09T12:01:15.774Z,101969.60
2023-04-09T12:04:02.817Z,101955.83
2023-04-09T12:06:49.965Z,101962.52
2023-04-09T12:09:47.860Z,101959.40
2023-04-09T12:12:41.909Z,101955.25
2023-04-09T12:15:32.961Z,101949.76
2023-04-09T12:18:23.462Z,101948.06
2023-04-09T12:21:10.419Z,101955.07
2023-04-09T12:23:56.829Z,101955.63
2023-04-09T12:26:45.608Z,101951.45
2023-04-09T12:29:33.654Z,101946.20
2023-04-09T12:32:20.705Z,101942.64
2023-04-09T12:35:07.918Z,101941.89
2023-04-09T12:37:54.269Z,101937.56
2023-04-09T12:40:40.743Z,101938.04
2023-04-09T12:43:27.283Z,101933.12
2023-04-09T12:46:14.242Z,101926.98
2023-04-09T12:49:01.028Z,101929.98
2023-04-09T12:51:47.504Z,101924.40
2023-04-09T12:54:34.227Z,101922.71
2023-04-09T12:57:20.896Z,101919.70
2023-04-09T13:00:08.040Z,101919.31
2023-04-09T13:02:55.837Z,101915.14
2023-04-09T13:05:43.864Z,101912.67
2023-04-09T13:08:31.155Z,101911.34
2023-04-09T13:11:17.550Z,101906.68
2023-04-09T13:14:04.124Z,101904.11
2023-04-09T13:16:52.509Z,101902.07
2023-04-09T13:19:39.889Z,101896.29
2023-04-09T13:22:27.796Z,101898.56
2023-04-09T13:25:17.183Z,101899.09
2023-04-09T13:28:03.783Z,101903.91
2023-04-09T13:30:50.261Z,101897.25
2023-04-09T13:33:36.817Z,101895.33
2023-04-09T13:36:23.600Z,101894.13
2023-04-09T13:39:10.344Z,101895.80
2023-04-09T13:41:57.403Z,101893.91
2023-04-09T13:44:45.525Z,101892.00
2023-04-09T13:47:31.853Z,101888.60
2023-04-09T13:50:18.711Z,101887.69
2023-04-09T13:53:05.863Z,101890.15
2023-04-09T13:55:52.520Z,101889.52
2023-04-09T13:58:39.894Z,101891.16
2023-04-09T14:01:28.405Z,101886.54
2023-04-09T14:04:15.431Z,101884.65
2023-04-09T14:07:01.580Z,101890.63
2023-04-09T14:09:48.392Z,101888.45
2023-04-09T14:12:34.947Z,101888.30
2023-04-09T14:15:22.247Z,101881.09
2023-04-09T14:18:08.812Z,101876.49
2023-04-09T14:20:55.435Z,101877.03
2023-04-09T14:23:42.153Z,101873.41
2023-04-09T14:26:29.297Z,101871.77
2023-04-09T14:29:17.284Z,101867.91
2023-04-09T14:32:03.680Z,101871.38
2023-04-09T14:34:50.465Z,101873.56
2023-04-09T14:37:37.715Z,101869.02
2023-04-09T14:40:24.510Z,101869.59
2023-04-09T14:43:10.895Z,101868.23
2023-04-09T14:45:57.341Z,101862.00
2023-04-09T14:48:43.693Z,101869.23
2023-04-09T14:51:30.844Z,101866.55
2023-04-09T14:54:17.509Z,101864.88
2023-04-09T14:57:03.923Z,101864.83
2023-04-09T14:59:50.485Z,101864.02
2023-04-09T15:02:41.640Z,101862.28
2023-04-09T15:05:28.369Z,101861.70
2023-04-09T15:08:14.567Z,101859.28
2023-04-09T15:11:01.400Z,101854.25
2023-04-09T15:13:48.150Z,101855.92
2023-04-09T15:16:37.474Z,101853.59
2023-04-09T15:19:24.163Z,101854.08
2023-04-09T15:22:10.680Z,101857.70
2023-04-09T15:24:57.262Z,101856.19
2023-04-09T15:27:44.011Z,101861.05
2023-04-09T15:30:30.797Z,101859.70
2023-04-09T15:33:17.428Z,101858.25
2023-04-09T15:36:04.454Z,101856.07
2023-04-09T15:38:54.110Z,101858.24
2023-04-09T15:41:40.912Z,101854.43
2023-04-09T15:44:27.613Z,101853.26
2023-04-09T15:47:14.268Z,101856.76
2023-04-09T15:50:00.663Z,101855.75
2023-04-09T15:52:47.362Z,101859.29
2023-04-09T15:55:33.694Z,101861.89
2023-04-09T15:58:19.879Z,101862.61
2023-04-09T16:01:07.604Z,101864.29
2023-04-09T16:03:54.296Z,101865.13
2023-04-09T16:06:40.847Z,101865.51
2023-04-09T16:09:27.175Z,101870.41
2023-04-09T16:12:13.705Z,101871.14
2023-04-09T16:14:59.994Z,101875.02
2023-04-09T16:17:46.556Z,101878.11
2023-04-09T16:20:33.283Z,101869.77
2023-04-09T16:23:21.276Z,101871.52
2023-04-09T16:26:08.050Z,101867.19
2023-04-09T16:28:54.918Z,101867.11
2023-04-09T16:31:42.330Z,101861.08
2023-04-09T16:34:31.460Z,101862.63
2023-04-09T16:37:17.941Z,101865.13
2023-04-09T16:40:05.518Z,101865.15
2023-04-09T16:42:52.336Z,101869.09
2023-04-09T16:45:39.038Z,101865.97
2023-04-09T16:48:25.697Z,101864.48
2023-04-09T16:51:12.500Z,101872.05
2023-04-09T16:53:58.840Z,101870.80
2023-04-09T16:56:48.521Z,101873.38
2023-04-09T16:59:34.815Z,101873.55
2023-04-09T17:02:22.845Z,101875.13
2023-04-09T17:05:10.257Z,101879.98
2023-04-09T17:07:57.166Z,101878.79
2023-04-09T17:10:44.778Z,101884.73
2023-04-09T17:13:35.812Z,101884.98
2023-04-09T17:16:22.525Z,101882.44
2023-04-09T17:19:08.997Z,101894.13
2023-04-09T17:21:57.017Z,101900.66
2023-04-09T17:24:43.929Z,101904.36
2023-04-09T17:27:30.221Z,101905.95
2023-04-09T17:30:17.152Z,101900.02
2023-04-09T17:33:04.001Z,101900.94
2023-04-09T17:35:50.999Z,101909.29
2023-04-09T17:38:37.488Z,101908.67
2023-04-09T17:41:24.210Z,101913.26
2023-04-09T17:44:11.398Z,101916.27
2023-04-09T17:46:58.171Z,101910.79
2023-04-09T17:49:45.950Z,101920.96
2023-04-09T17:52:36.767Z,101915.95
2023-04-09T17:55:23.587Z,101929.88
2023-04-09T17:58:09.947Z,101933.72
2023-04-09T18:00:56.831Z,101934.70
2023-04-09T18:03:45.759Z,101936.30
2023-04-09T18:06:32.383Z,101934.25
2023-04-09T18:09:19.276Z,101942.22
2023-04-09T18:12:05.744Z,101944.75
2023-04-09T18:14:52.025Z,101949.63
2023-04-09T18:17:38.606Z,101951.90
2023-04-09T18:20:25.443Z,101951.46
2023-04-09T18:23:12.285Z,101957.45
2023-04-09T18:25:59.045Z,101957.16
2023-04-09T18:28:45.360Z,101961.21
2023-04-09T18:31:32.046Z,101966.92
2023-04-09T18:34:19.610Z,101970.48
2023-04-09T18:37:07.750Z,101970.23
2023-04-09T18:39:54.676Z,101964.50
2023-04-09T18:42:41.506Z,101979.48
2023-04-09T18:45:27.997Z,101979.48
2023-04-09T18:48:14.718Z,101982.13
2023-04-09T18:51:03.028Z,101986.33
2023-04-09T18:53:53.025Z,101984.50
2023-04-09T18:56:39.538Z,101988.16
2023-04-09T18:59:26.199Z,101986.44
2023-04-09T19:02:13.052Z,101986.16
2023-04-09T19:04:59.952Z,101995.17
2023-04-09T19:07:46.975Z,101995.23
2023-04-09T19:10:33.643Z,101989.42
2023-04-09T19:13:20.194Z,101998.42
2023-04-09T19:16:09.354Z,102003.92
2023-04-09T19:18:56.818Z,102006.36
2023-04-09T19:21:43.276Z,102005.02
2023-04-09T19:24:29.631Z,102004.81
2023-04-09T19:27:17.090Z,102009.78
2023-04-09T19:30:04.399Z,102014.55
2023-04-09T19:32:51.393Z,102014.71
2023-04-09T19:35:40.717Z,102018.71
2023-04-09T19:38:27.156Z,102017.24
2023-04-09T19:41:13.988Z,102015.65
2023-04-09T19:44:01.444Z,102022.54
2023-04-09T19:46:48.204Z,102027.52
2023-04-09T19:49:34.970Z,102025.65
2023-04-09T19:52:21.828Z,102032.79
2023-04-09T19:55:09.399Z,102031.49
2023-04-09T19:57:56.900Z,102037.71
2023-04-09T20:00:43.576Z,102042.98
2023-04-09T20:03:32.693Z,102042.25
2023-04-09T20:06:19.541Z,102043.91
2023-04-09T20:09:05.976Z,102048.01
2023-04-09T20:11:53.876Z,102045.21
2023-04-09T20:14:40.660Z,102051.29
2023-04-09T20:17:27.315Z,102061.89
2023-04-09T20:20:17.943Z,102061.31
2023-04-09T20:23:05.057Z,102066.39
2023-04-09T20:25:55.289Z,102062.11
2023-04-09T20:28:42.464Z,102058.86
2023-04-09T20:31:30.988Z,102060.34
2023-04-09T20:34:17.356Z,102064.70
2023-04-09T20:37:05.737Z,102063.10
2023-04-09T20:39:52.416Z,102064.41
2023-04-09T20:42:40.900Z,102060.63
2023-04-09T20:45:27.265Z,102045.23
2023-04-09T20:48:14.907Z,102065.94
2023-04-09T20:51:03.848Z,102067.16
2023-04-09T20:53:50.165Z,102063.81
2023-04-09T20:56:36.676Z,102062.88
2023-04-09T20:59:23.695Z,102063.70
2023-04-09T21:02:12.800Z,102064.18
2023-04-09T21:05:03.481Z,102061.31
2023-04-09T21:08:02.230Z,102059.67
2023-04-09T21:10:48.688Z,102059.07
2023-04-09T21:13:50.447Z,102057.26
2023-04-09T21:16:41.409Z,102053.98
2023-04-09T21:19:28.278Z,102055.38
2023-04-09T21:22:15.234Z,102047.86
2023-04-09T21:25:03.302Z,102049.48
2023-04-09T21:27:49.867Z,102048.88
2023-04-09T21:30:37.955Z,102052.49
2023-04-09T21:33:26.323Z,102056.28
2023-04-09T21:36:13.636Z,102057.18
2023-04-09T21:39:00.307Z,102054.64
2023-04-09T21:41:47.594Z,102058.16
2023-04-09T21:44:33.784Z,102061.78
2023-04-09T21:47:20.110Z,102052.38
2023-04-09T21:50:08.417Z,102058.91
2023-04-09T21:52:54.470Z,102059.14
2023-04-09T21:55:40.705Z,102063.08
2023-04-09T21:58:27.457Z,102058.77
2023-04-09T22:01:22.662Z,102067.34
2023-04-09T22:04:15.688Z,102070.08
2023-04-09T22:07:03.371Z,102063.15
2023-04-09T22:09:49.500Z,102061.35
2023-04-09T22:12:37.253Z,102057.14
2023-04-09T22:15:23.688Z,102055.80
2023-04-09T22:18:10.485Z,102056.26
2023-04-09T22:20:57.210Z,102057.33
2023-04-09T22:23:44.174Z,102056.92
2023-04-09T22:26:31.708Z,102054.59
2023-04-09T22:29:17.701Z,102051.02
2023-04-09T22:32:04.403Z,102049.19
2023-04-09T22:34:50.683Z,102047.77
2023-04-09T22:37:37.300Z,102046.34
2023-04-09T22:40:23.502Z,102047.66
2023-04-09T22:43:10.177Z,102043.97
2023-04-09T22:45:57.370Z,102045.27
2023-04-09T22:48:44.766Z,102046.98
2023-04-09T22:51:34.645Z,102049.92
2023-04-09T22:54:22.009Z,102048.61
2023-04-09T22:57:08.576Z,102050.64
2023-04-09T22:59:55.352Z,102054.08
2023-04-09T23:02:42.311Z,102056.29
2023-04-09T23:05:28.898Z,102055.89
2023-04-09T23:08:15.778Z,102056.19
2023-04-09T23:11:02.258Z,102053.14
2023-04-09T23:13:48.582Z,102051.96
2023-04-09T23:16:35.558Z,102044.08
2023-04-09T23:19:21.897Z,102048.14
2023-04-09T23:22:08.225Z,102040.99
2023-04-09T23:24:54.804Z,102039.80
2023-04-09T23:27:41.155Z,102032.78
2023-04-09T23:30:28.162Z,102032.72
2023-04-09T23:33:14.903Z,102027.10
2023-04-09T23:36:01.536Z,102036.91
2023-04-09T23:38:47.975Z,102041.18
2023-04-09T23:41:34.568Z,102048.04
2023-04-09T23:44:21.021Z,102049.14
2023-04-09T23:47:07.751Z,102045.96
2023-04-09T23:49:54.459Z,102035.58
2023-04-09T23:52:47.184Z,102041.09
2023-04-09T23:55:37.885Z,102041.91
2023-04-09T23:58:24.385Z,102045.02
